createdAt,value
2022-08-09T00:02:34.400Z,60.20
2022-08-09T00:07:44.593Z,60.65
2022-08-09T00:12:51.664Z,61.10
2022-08-09T00:18:05.623Z,61.61
2022-08-09T00:23:55.015Z,67.00
2022-08-09T00:28:39.767Z,62.60
2022-08-09T00:33:50.529Z,54.91
2022-08-09T00:38:54.662Z,53.91
2022-08-09T00:44:11.266Z,55.50
2022-08-09T00:49:20.712Z,57.00
2022-08-09T00:54:35.078Z,58.14
2022-08-09T00:59:46.928Z,59.29
2022-08-09T01:05:21.991Z,60.09
2022-08-09T01:10:45.183Z,60.61
2022-08-09T01:15:51.844Z,61.52
2022-08-09T01:21:44.542Z,61.69
2022-08-09T01:27:05.682Z,67.93
2022-08-09T01:32:29.868Z,61.82
2022-08-09T01:38:05.738Z,54.33
2022-08-09T01:43:03.508Z,54.97
2022-08-09T01:48:11.202Z,56.31
2022-08-09T01:53:23.058Z,57.66
2022-08-09T01:58:28.993Z,59.01
2022-08-09T02:03:35.928Z,60.15
2022-08-09T02:08:58.120Z,61.37
2022-08-09T02:14:07.867Z,62.18
2022-08-09T02:19:12.864Z,67.99
2022-08-09T02:24:26.113Z,63.13
2022-08-09T02:29:38.017Z,56.16
2022-08-09T02:34:51.857Z,55.46
2022-08-09T02:40:27.044Z,56.90
2022-08-09T02:45:40.828Z,57.97
2022-08-09T02:50:55.735Z,59.01
2022-08-09T02:56:01.221Z,60.18
2022-08-09T03:01:10.904Z,61.20
2022-08-09T03:06:19.827Z,62.00
2022-08-09T03:12:04.158Z,67.63
2022-08-09T03:16:50.406Z,63.55
2022-08-09T03:21:55.150Z,56.05
2022-08-09T03:27:00.006Z,55.41
2022-08-09T03:32:06.554Z,56.72
2022-08-09T03:37:54.347Z,57.87
2022-08-09T03:42:35.096Z,59.33
2022-08-09T03:47:40.205Z,60.58
2022-08-09T03:52:50.340Z,61.52
2022-08-09T03:58:03.245Z,67.51
2022-08-09T04:03:11.873Z,63.10
2022-08-09T04:08:29.008Z,56.48
2022-08-09T04:13:44.844Z,56.02
2022-08-09T04:18:55.807Z,57.52
2022-08-09T04:24:00.516Z,58.49
2022-08-09T04:29:10.794Z,59.60
2022-08-09T04:34:18.783Z,60.47
2022-08-09T04:39:33.652Z,60.95
2022-08-09T04:44:49.044Z,61.56
2022-08-09T04:49:55.711Z,64.29
2022-08-09T04:55:02.578Z,50.47
2022-08-09T05:00:09.443Z,44.79
2022-08-09T05:05:12.474Z,41.42
2022-08-09T05:10:22.196Z,38.23
2022-08-09T05:15:39.079Z,36.73
2022-08-09T05:20:50.952Z,35.69
2022-08-09T05:25:54.156Z,35.32
2022-08-09T05:30:59.958Z,35.39
2022-08-09T05:36:14.861Z,36.86
2022-08-09T05:41:18.695Z,38.72
2022-08-09T05:46:21.485Z,40.66
2022-08-09T05:51:42.367Z,41.49
2022-08-09T05:56:55.006Z,43.94
2022-08-09T06:01:59.798Z,45.46
2022-08-09T06:07:04.358Z,47.37
2022-08-09T06:12:08.005Z,47.88
2022-08-09T06:17:12.150Z,49.42
2022-08-09T06:22:17.510Z,50.30
2022-08-09T06:27:20.543Z,50.47
2022-08-09T06:32:53.311Z,50.62
2022-08-09T06:37:52.913Z,51.38
2022-08-09T06:43:10.532Z,52.26
2022-08-09T06:48:16.691Z,53.07
2022-08-09T06:53:33.222Z,53.16
2022-08-09T07:00:50.474Z,54.08
2022-08-09T07:04:04.716Z,54.26
2022-08-09T07:09:53.627Z,55.35
2022-08-09T07:14:35.564Z,54.85
2022-08-09T07:19:38.465Z,55.00
2022-08-09T07:24:44.322Z,54.75
2022-08-09T07:29:52.308Z,54.59
2022-08-09T07:35:00.068Z,55.17
2022-08-09T07:40:04.996Z,55.15
2022-08-09T07:45:22.849Z,55.15
2022-08-09T07:50:36.330Z,55.59
2022-08-09T07:56:02.947Z,55.81
2022-08-09T08:01:06.744Z,56.31
2022-08-09T08:06:14.220Z,56.71
2022-08-09T08:12:11.481Z,56.49
2022-08-09T08:16:51.108Z,56.77
2022-08-09T08:22:06.122Z,56.13
2022-08-09T08:27:16.936Z,55.88
2022-08-09T08:32:29.051Z,53.96
2022-08-09T08:37:41.261Z,54.77
2022-08-09T08:42:47.053Z,53.26
2022-08-09T08:47:50.700Z,53.30
2022-08-09T08:53:03.973Z,52.44
2022-08-09T08:58:10.814Z,52.53
2022-08-09T09:03:22.980Z,52.35
2022-08-09T09:08:42.091Z,51.42
2022-08-09T09:13:56.181Z,50.62
2022-08-09T09:19:36.903Z,50.69
2022-08-09T09:24:37.956Z,50.75
2022-08-09T09:30:12.271Z,50.51
2022-08-09T09:35:10.923Z,50.55
2022-08-09T09:40:18.924Z,50.86
2022-08-09T09:45:26.772Z,50.91
2022-08-09T09:50:50.558Z,50.56
2022-08-09T09:56:04.407Z,49.85
2022-08-09T10:01:37.275Z,48.95
2022-08-09T10:06:47.010Z,48.97
2022-08-09T10:12:14.747Z,48.46
2022-08-09T10:17:51.194Z,47.79
2022-08-09T10:23:01.085Z,48.10
2022-08-09T10:28:05.034Z,48.45
2022-08-09T10:33:09.973Z,47.69
2022-08-09T10:38:56.912Z,48.66
2022-08-09T10:44:01.957Z,48.54
2022-08-09T10:49:19.921Z,47.92
2022-08-09T10:54:25.410Z,48.37
2022-08-09T10:59:31.856Z,48.56
2022-08-09T11:05:24.571Z,48.63
2022-08-09T11:10:53.282Z,48.46
2022-08-09T11:16:40.978Z,48.29
2022-08-09T11:22:16.625Z,47.72
2022-08-09T11:28:04.630Z,47.81
2022-08-09T11:33:17.506Z,46.75
2022-08-09T11:38:32.384Z,47.03
2022-08-09T11:43:37.422Z,46.56
2022-08-09T11:48:59.457Z,46.50
2022-08-09T11:54:27.843Z,46.11
2022-08-09T11:59:34.044Z,45.71
2022-08-09T12:04:38.205Z,45.73
2022-08-09T12:09:50.695Z,45.44
2022-08-09T12:15:04.203Z,44.76
2022-08-09T12:20:25.687Z,43.47
2022-08-09T12:25:37.357Z,43.20
2022-08-09T12:30:42.238Z,43.03
2022-08-09T12:35:45.917Z,42.25
2022-08-09T12:40:52.649Z,42.55
2022-08-09T12:46:00.269Z,42.71
2022-08-09T12:51:04.908Z,41.95
2022-08-09T12:56:37.010Z,41.01
2022-08-09T13:01:50.179Z,41.54
2022-08-09T13:06:54.838Z,41.61
2022-08-09T13:12:04.936Z,41.97
2022-08-09T13:17:43.926Z,41.91
2022-08-09T13:23:01.748Z,41.28
2022-08-09T13:28:19.015Z,41.39
2022-08-09T13:33:53.426Z,41.86
2022-08-09T13:38:59.997Z,42.51
2022-08-09T13:44:05.366Z,43.05
2022-08-09T13:49:18.053Z,42.59
2022-08-09T13:54:21.648Z,43.62
2022-08-09T13:59:41.864Z,44.08
2022-08-09T14:04:49.412Z,44.45
2022-08-09T14:10:03.349Z,44.57
2022-08-09T14:16:02.069Z,44.67
2022-08-09T14:20:31.138Z,44.79
2022-08-09T14:25:42.848Z,44.86
2022-08-09T14:30:46.429Z,44.14
2022-08-09T14:35:52.113Z,44.29
2022-08-09T14:41:02.222Z,44.24
2022-08-09T14:46:55.763Z,43.52
2022-08-09T14:51:42.811Z,44.21
2022-08-09T14:56:53.686Z,44.54
2022-08-09T15:02:01.965Z,44.57
2022-08-09T15:07:05.933Z,43.98
2022-08-09T15:12:13.416Z,43.68
2022-08-09T15:17:16.483Z,43.40
2022-08-09T15:22:20.871Z,42.99
2022-08-09T15:27:28.941Z,42.99
2022-08-09T15:32:52.402Z,42.63
2022-08-09T15:38:11.240Z,42.58
2022-08-09T15:43:15.013Z,42.58
2022-08-09T15:48:29.061Z,42.87
2022-08-09T15:54:05.276Z,42.91
2022-08-09T15:58:56.270Z,43.36
2022-08-09T16:04:01.958Z,43.75
2022-08-09T16:09:06.375Z,43.35
2022-08-09T16:14:09.459Z,42.60
2022-08-09T16:19:17.121Z,43.28
2022-08-09T16:24:33.052Z,43.94
2022-08-09T16:29:50.004Z,44.07
2022-08-09T16:34:54.846Z,43.59
2022-08-09T16:40:05.652Z,44.06
2022-08-09T16:45:10.537Z,44.45
2022-08-09T16:50:32.462Z,45.05
2022-08-09T16:55:58.494Z,45.82
2022-08-09T17:01:00.884Z,46.57
2022-08-09T17:06:28.103Z,46.94
2022-08-09T17:11:40.632Z,47.29
2022-08-09T17:16:45.195Z,47.80
2022-08-09T17:21:48.328Z,47.92
2022-08-09T17:26:58.737Z,48.40
2022-08-09T17:32:02.355Z,48.78
2022-08-09T17:37:19.741Z,49.18
2022-08-09T17:42:55.199Z,49.23
2022-08-09T17:47:49.676Z,49.50
2022-08-09T17:52:58.209Z,50.02
2022-08-09T17:58:03.598Z,50.31
2022-08-09T18:03:08.803Z,50.44
2022-08-09T18:08:13.387Z,51.01
2022-08-09T18:13:53.529Z,51.09
2022-08-09T18:18:49.211Z,51.79
2022-08-09T18:24:09.854Z,52.29
2022-08-09T18:30:40.885Z,52.73
2022-08-09T18:34:48.182Z,52.83
2022-08-09T18:39:51.521Z,53.91
2022-08-09T18:44:54.576Z,53.69
2022-08-09T18:50:02.985Z,54.53
2022-08-09T18:55:13.705Z,55.12
2022-08-09T19:00:20.163Z,54.44
2022-08-09T19:05:28.705Z,54.56
2022-08-09T19:10:48.152Z,54.63
2022-08-09T19:15:55.829Z,54.77
2022-08-09T19:21:00.568Z,54.71
2022-08-09T19:26:05.422Z,55.02
2022-08-09T19:31:08.634Z,55.47
2022-08-09T19:36:11.905Z,56.25
2022-08-09T19:41:33.184Z,56.25
2022-08-09T19:46:50.913Z,56.27
2022-08-09T19:51:57.295Z,56.41
2022-08-09T19:57:00.555Z,56.74
2022-08-09T20:02:18.241Z,56.96
2022-08-09T20:07:56.904Z,57.08
2022-08-09T20:12:55.693Z,57.09
2022-08-09T20:18:02.437Z,57.03
2022-08-09T20:23:07.548Z,56.99
2022-08-09T20:28:12.804Z,57.16
2022-08-09T20:33:28.202Z,57.51
2022-08-09T20:39:28.486Z,58.26
2022-08-09T20:44:10.215Z,58.25
2022-08-09T20:49:16.016Z,58.40
2022-08-09T20:54:19.831Z,59.06
2022-08-09T21:00:20.931Z,59.27
2022-08-09T21:05:53.364Z,59.66
2022-08-09T21:10:12.102Z,59.86
2022-08-09T21:15:15.386Z,60.17
2022-08-09T21:20:25.687Z,60.42
2022-08-09T21:25:55.996Z,60.76
2022-08-09T21:31:16.881Z,61.22
2022-08-09T21:36:27.867Z,61.53
2022-08-09T21:42:04.669Z,61.67
2022-08-09T21:46:57.468Z,62.05
2022-08-09T21:52:00.714Z,62.36
2022-08-09T21:57:03.978Z,67.19
2022-08-09T22:02:09.329Z,62.88
2022-08-09T22:07:35.112Z,54.39
2022-08-09T22:12:49.777Z,53.87
2022-08-09T22:17:54.799Z,54.88
2022-08-09T22:22:58.340Z,55.96
2022-08-09T22:28:06.694Z,56.99
2022-08-09T22:33:10.565Z,57.86
2022-08-09T22:38:14.754Z,58.27
2022-08-09T22:44:02.697Z,58.85
2022-08-09T22:48:50.293Z,59.39
2022-08-09T22:54:02.633Z,60.00
2022-08-09T22:59:57.765Z,60.62
2022-08-09T23:04:32.860Z,61.53
2022-08-09T23:09:36.085Z,61.93
2022-08-09T23:14:42.750Z,66.85
2022-08-09T23:20:07.294Z,62.96
2022-08-09T23:25:11.148Z,54.81
2022-08-09T23:30:14.350Z,54.38
2022-08-09T23:35:17.386Z,55.70
2022-08-09T23:40:20.684Z,56.97
2022-08-09T23:45:37.331Z,57.76
2022-08-09T23:50:41.863Z,58.47
2022-08-09T23:55:49.441Z,59.24
